sensor_id;sensor_type;location;lat;lon;timestamp;temperature;humidity
74336;DHT22;62755;-33.398;-70.572;2022-10-15T00:02:14;24.30;27.20
74336;DHT22;62755;-33.398;-70.572;2022-10-15T00:04:43;24.20;27.30
74336;DHT22;62755;-33.398;-70.572;2022-10-15T00:07:14;24.20;27.20
74336;DHT22;62755;-33.398;-70.572;2022-10-15T00:09:45;24.20;27.40
74336;DHT22;62755;-33.398;-70.572;2022-10-15T00:12:16;24.20;27.60
74336;DHT22;62755;-33.398;-70.572;2022-10-15T00:14:46;24.20;27.60
74336;DHT22;62755;-33.398;-70.572;2022-10-15T00:17:15;24.20;27.50
74336;DHT22;62755;-33.398;-70.572;2022-10-15T00:19:45;24.10;27.70
74336;DHT22;62755;-33.398;-70.572;2022-10-15T00:22:14;24.00;27.60
74336;DHT22;62755;-33.398;-70.572;2022-10-15T00:24:44;24.00;27.60
74336;DHT22;62755;-33.398;-70.572;2022-10-15T00:27:15;23.90;27.90
74336;DHT22;62755;-33.398;-70.572;2022-10-15T00:29:45;23.90;28.00
74336;DHT22;62755;-33.398;-70.572;2022-10-15T00:32:15;23.80;28.20
74336;DHT22;62755;-33.398;-70.572;2022-10-15T00:34:44;23.80;27.90
74336;DHT22;62755;-33.398;-70.572;2022-10-15T00:37:15;23.80;28.20
74336;DHT22;62755;-33.398;-70.572;2022-10-15T00:39:45;23.80;28.40
74336;DHT22;62755;-33.398;-70.572;2022-10-15T00:42:17;23.80;28.40
74336;DHT22;62755;-33.398;-70.572;2022-10-15T00:44:55;23.80;28.60
74336;DHT22;62755;-33.398;-70.572;2022-10-15T00:47:32;23.90;28.70
74336;DHT22;62755;-33.398;-70.572;2022-10-15T00:50:05;23.90;29.00
74336;DHT22;62755;-33.398;-70.572;2022-10-15T00:52:43;23.90;28.90
74336;DHT22;62755;-33.398;-70.572;2022-10-15T00:55:17;23.80;28.90
74336;DHT22;62755;-33.398;-70.572;2022-10-15T00:57:49;23.80;28.60
74336;DHT22;62755;-33.398;-70.572;2022-10-15T01:00:20;23.80;28.60
74336;DHT22;62755;-33.398;-70.572;2022-10-15T01:02:49;23.80;28.50
74336;DHT22;62755;-33.398;-70.572;2022-10-15T01:05:19;23.60;28.60
74336;DHT22;62755;-33.398;-70.572;2022-10-15T01:07:49;23.60;28.60
74336;DHT22;62755;-33.398;-70.572;2022-10-15T01:10:20;23.50;28.90
74336;DHT22;62755;-33.398;-70.572;2022-10-15T01:12:58;23.20;29.20
74336;DHT22;62755;-33.398;-70.572;2022-10-15T01:15:34;23.10;29.20
74336;DHT22;62755;-33.398;-70.572;2022-10-15T01:18:09;23.00;29.30
74336;DHT22;62755;-33.398;-70.572;2022-10-15T01:21:00;22.90;29.90
74336;DHT22;62755;-33.398;-70.572;2022-10-15T01:32:37;22.80;30.10
74336;DHT22;62755;-33.398;-70.572;2022-10-15T01:35:13;22.80;30.20
74336;DHT22;62755;-33.398;-70.572;2022-10-15T01:37:51;22.80;30.40
74336;DHT22;62755;-33.398;-70.572;2022-10-15T01:40:25;22.90;30.20
74336;DHT22;62755;-33.398;-70.572;2022-10-15T01:42:58;22.80;29.80
74336;DHT22;62755;-33.398;-70.572;2022-10-15T01:45:31;22.80;30.00
74336;DHT22;62755;-33.398;-70.572;2022-10-15T01:48:06;22.70;30.10
74336;DHT22;62755;-33.398;-70.572;2022-10-15T01:50:41;22.70;29.50
74336;DHT22;62755;-33.398;-70.572;2022-10-15T01:53:15;22.70;29.90
74336;DHT22;62755;-33.398;-70.572;2022-10-15T01:55:46;22.70;30.20
74336;DHT22;62755;-33.398;-70.572;2022-10-15T01:58:16;22.70;29.90
74336;DHT22;62755;-33.398;-70.572;2022-10-15T02:00:47;22.80;29.80
74336;DHT22;62755;-33.398;-70.572;2022-10-15T02:03:18;22.80;30.00
74336;DHT22;62755;-33.398;-70.572;2022-10-15T02:05:51;22.70;29.80
74336;DHT22;62755;-33.398;-70.572;2022-10-15T02:08:25;22.60;30.00
74336;DHT22;62755;-33.398;-70.572;2022-10-15T02:11:01;22.60;29.80
74336;DHT22;62755;-33.398;-70.572;2022-10-15T02:13:35;22.40;30.00
74336;DHT22;62755;-33.398;-70.572;2022-10-15T02:16:13;22.30;30.40
74336;DHT22;62755;-33.398;-70.572;2022-10-15T02:18:50;22.30;30.60
74336;DHT22;62755;-33.398;-70.572;2022-10-15T02:21:29;22.40;30.50
74336;DHT22;62755;-33.398;-70.572;2022-10-15T02:24:05;22.20;30.50
74336;DHT22;62755;-33.398;-70.572;2022-10-15T02:26:38;22.20;30.70
74336;DHT22;62755;-33.398;-70.572;2022-10-15T02:29:09;22.20;30.50
74336;DHT22;62755;-33.398;-70.572;2022-10-15T02:31:42;22.20;30.50
74336;DHT22;62755;-33.398;-70.572;2022-10-15T02:34:17;22.20;30.50
74336;DHT22;62755;-33.398;-70.572;2022-10-15T02:36:49;22.20;30.40
74336;DHT22;62755;-33.398;-70.572;2022-10-15T02:39:22;22.10;30.20
74336;DHT22;62755;-33.398;-70.572;2022-10-15T02:41:53;22.00;30.40
74336;DHT22;62755;-33.398;-70.572;2022-10-15T02:44:22;22.00;30.30
74336;DHT22;62755;-33.398;-70.572;2022-10-15T02:46:52;22.00;30.30
74336;DHT22;62755;-33.398;-70.572;2022-10-15T02:49:24;21.90;30.40
74336;DHT22;62755;-33.398;-70.572;2022-10-15T02:51:53;21.90;30.40
74336;DHT22;62755;-33.398;-70.572;2022-10-15T02:54:23;21.80;30.40
74336;DHT22;62755;-33.398;-70.572;2022-10-15T02:56:53;21.70;30.40
74336;DHT22;62755;-33.398;-70.572;2022-10-15T02:59:22;21.70;30.40
74336;DHT22;62755;-33.398;-70.572;2022-10-15T03:01:52;21.60;30.50
74336;DHT22;62755;-33.398;-70.572;2022-10-15T03:04:23;21.50;30.50
74336;DHT22;62755;-33.398;-70.572;2022-10-15T03:06:53;21.50;30.60
74336;DHT22;62755;-33.398;-70.572;2022-10-15T03:09:22;21.50;30.60
74336;DHT22;62755;-33.398;-70.572;2022-10-15T03:11:52;21.40;30.40
74336;DHT22;62755;-33.398;-70.572;2022-10-15T03:14:22;21.40;30.50
74336;DHT22;62755;-33.398;-70.572;2022-10-15T03:16:51;21.40;30.50
74336;DHT22;62755;-33.398;-70.572;2022-10-15T03:19:23;21.50;30.70
74336;DHT22;62755;-33.398;-70.572;2022-10-15T03:21:52;21.50;30.90
74336;DHT22;62755;-33.398;-70.572;2022-10-15T03:24:22;21.50;31.10
74336;DHT22;62755;-33.398;-70.572;2022-10-15T03:26:52;21.50;31.20
74336;DHT22;62755;-33.398;-70.572;2022-10-15T03:29:22;21.40;31.20
74336;DHT22;62755;-33.398;-70.572;2022-10-15T03:31:52;21.40;31.10
74336;DHT22;62755;-33.398;-70.572;2022-10-15T03:34:23;21.00;30.90
74336;DHT22;62755;-33.398;-70.572;2022-10-15T03:36:53;20.50;31.70
74336;DHT22;62755;-33.398;-70.572;2022-10-15T03:39:23;20.30;31.80
74336;DHT22;62755;-33.398;-70.572;2022-10-15T03:41:52;20.50;31.80
74336;DHT22;62755;-33.398;-70.572;2022-10-15T03:44:24;20.60;31.50
74336;DHT22;62755;-33.398;-70.572;2022-10-15T03:46:53;20.70;31.50
74336;DHT22;62755;-33.398;-70.572;2022-10-15T03:49:25;20.80;31.30
74336;DHT22;62755;-33.398;-70.572;2022-10-15T03:51:54;20.80;31.20
74336;DHT22;62755;-33.398;-70.572;2022-10-15T03:54:24;20.90;30.90
74336;DHT22;62755;-33.398;-70.572;2022-10-15T03:56:54;20.80;31.10
74336;DHT22;62755;-33.398;-70.572;2022-10-15T03:59:23;20.70;31.00
74336;DHT22;62755;-33.398;-70.572;2022-10-15T04:01:53;20.70;30.50
74336;DHT22;62755;-33.398;-70.572;2022-10-15T04:04:24;20.50;30.70
74336;DHT22;62755;-33.398;-70.572;2022-10-15T04:06:54;20.30;31.10
74336;DHT22;62755;-33.398;-70.572;2022-10-15T04:09:23;20.20;31.10
74336;DHT22;62755;-33.398;-70.572;2022-10-15T04:11:53;20.00;31.10
74336;DHT22;62755;-33.398;-70.572;2022-10-15T04:14:23;20.00;31.20
74336;DHT22;62755;-33.398;-70.572;2022-10-15T04:16:53;20.00;31.30
74336;DHT22;62755;-33.398;-70.572;2022-10-15T04:19:26;20.00;31.50
74336;DHT22;62755;-33.398;-70.572;2022-10-15T04:21:56;19.90;31.60
74336;DHT22;62755;-33.398;-70.572;2022-10-15T04:24:26;19.90;31.60
74336;DHT22;62755;-33.398;-70.572;2022-10-15T04:26:55;20.00;31.50
74336;DHT22;62755;-33.398;-70.572;2022-10-15T04:29:25;20.00;31.60
74336;DHT22;62755;-33.398;-70.572;2022-10-15T04:31:54;20.00;31.60
74336;DHT22;62755;-33.398;-70.572;2022-10-15T04:37:51;20.20;31.50
74336;DHT22;62755;-33.398;-70.572;2022-10-15T04:40:20;20.20;31.50
74336;DHT22;62755;-33.398;-70.572;2022-10-15T04:42:50;20.20;31.50
74336;DHT22;62755;-33.398;-70.572;2022-10-15T04:45:20;20.30;31.40
74336;DHT22;62755;-33.398;-70.572;2022-10-15T04:47:49;20.30;31.20
74336;DHT22;62755;-33.398;-70.572;2022-10-15T04:50:19;20.30;31.40
74336;DHT22;62755;-33.398;-70.572;2022-10-15T04:52:50;20.30;31.60
74336;DHT22;62755;-33.398;-70.572;2022-10-15T04:55:20;20.30;31.90
74336;DHT22;62755;-33.398;-70.572;2022-10-15T04:57:49;20.30;31.60
74336;DHT22;62755;-33.398;-70.572;2022-10-15T05:00:19;20.40;31.70
74336;DHT22;62755;-33.398;-70.572;2022-10-15T05:02:48;20.50;31.80
74336;DHT22;62755;-33.398;-70.572;2022-10-15T05:05:18;20.50;31.70
74336;DHT22;62755;-33.398;-70.572;2022-10-15T05:07:49;20.50;31.90
74336;DHT22;62755;-33.398;-70.572;2022-10-15T05:10:19;20.60;31.60
74336;DHT22;62755;-33.398;-70.572;2022-10-15T05:12:49;20.60;31.50
74336;DHT22;62755;-33.398;-70.572;2022-10-15T05:15:18;20.60;31.70
74336;DHT22;62755;-33.398;-70.572;2022-10-15T05:17:48;20.70;31.80
74336;DHT22;62755;-33.398;-70.572;2022-10-15T05:20:17;20.70;31.70
74336;DHT22;62755;-33.398;-70.572;2022-10-15T05:22:47;20.70;32.00
74336;DHT22;62755;-33.398;-70.572;2022-10-15T05:25:18;20.70;32.00
74336;DHT22;62755;-33.398;-70.572;2022-10-15T05:27:48;20.80;32.00
74336;DHT22;62755;-33.398;-70.572;2022-10-15T05:30:19;20.80;31.80
74336;DHT22;62755;-33.398;-70.572;2022-10-15T05:32:51;20.80;31.70
74336;DHT22;62755;-33.398;-70.572;2022-10-15T05:35:21;20.80;32.00
74336;DHT22;62755;-33.398;-70.572;2022-10-15T05:37:52;20.70;32.30
74336;DHT22;62755;-33.398;-70.572;2022-10-15T05:40:23;20.70;32.40
74336;DHT22;62755;-33.398;-70.572;2022-10-15T05:42:53;20.60;32.10
74336;DHT22;62755;-33.398;-70.572;2022-10-15T05:45:22;20.50;32.10
74336;DHT22;62755;-33.398;-70.572;2022-10-15T05:47:54;20.30;32.30
74336;DHT22;62755;-33.398;-70.572;2022-10-15T05:50:24;20.20;32.20
74336;DHT22;62755;-33.398;-70.572;2022-10-15T05:52:54;20.10;31.90
74336;DHT22;62755;-33.398;-70.572;2022-10-15T05:55:25;20.10;31.90
74336;DHT22;62755;-33.398;-70.572;2022-10-15T05:57:55;20.10;32.10
74336;DHT22;62755;-33.398;-70.572;2022-10-15T06:00:28;20.30;32.00
74336;DHT22;62755;-33.398;-70.572;2022-10-15T06:02:58;20.30;32.30
74336;DHT22;62755;-33.398;-70.572;2022-10-15T06:05:28;20.30;32.30
74336;DHT22;62755;-33.398;-70.572;2022-10-15T06:07:57;20.40;32.20
74336;DHT22;62755;-33.398;-70.572;2022-10-15T06:10:29;20.50;32.30
74336;DHT22;62755;-33.398;-70.572;2022-10-15T06:12:58;20.50;32.20
74336;DHT22;62755;-33.398;-70.572;2022-10-15T06:15:28;20.60;32.30
74336;DHT22;62755;-33.398;-70.572;2022-10-15T06:17:58;20.50;32.10
74336;DHT22;62755;-33.398;-70.572;2022-10-15T06:20:27;20.50;31.90
74336;DHT22;62755;-33.398;-70.572;2022-10-15T06:22:57;20.50;31.70
74336;DHT22;62755;-33.398;-70.572;2022-10-15T06:25:29;20.50;31.60
74336;DHT22;62755;-33.398;-70.572;2022-10-15T06:28:01;20.50;31.80
74336;DHT22;62755;-33.398;-70.572;2022-10-15T06:30:31;20.50;31.90
74336;DHT22;62755;-33.398;-70.572;2022-10-15T06:33:01;20.50;32.00
74336;DHT22;62755;-33.398;-70.572;2022-10-15T06:35:30;20.50;32.10
74336;DHT22;62755;-33.398;-70.572;2022-10-15T06:38:02;20.40;31.50
74336;DHT22;62755;-33.398;-70.572;2022-10-15T06:40:33;20.20;31.90
74336;DHT22;62755;-33.398;-70.572;2022-10-15T06:43:04;20.10;31.90
74336;DHT22;62755;-33.398;-70.572;2022-10-15T06:45:35;20.10;31.60
74336;DHT22;62755;-33.398;-70.572;2022-10-15T06:48:05;20.10;31.80
74336;DHT22;62755;-33.398;-70.572;2022-10-15T06:50:35;20.10;31.90
74336;DHT22;62755;-33.398;-70.572;2022-10-15T06:53:06;20.00;31.50
74336;DHT22;62755;-33.398;-70.572;2022-10-15T06:55:37;19.90;31.70
74336;DHT22;62755;-33.398;-70.572;2022-10-15T06:58:07;19.90;31.80
74336;DHT22;62755;-33.398;-70.572;2022-10-15T07:00:37;19.90;32.10
74336;DHT22;62755;-33.398;-70.572;2022-10-15T07:03:07;19.90;32.30
74336;DHT22;62755;-33.398;-70.572;2022-10-15T07:05:36;20.00;32.00
74336;DHT22;62755;-33.398;-70.572;2022-10-15T07:08:06;19.90;31.90
74336;DHT22;62755;-33.398;-70.572;2022-10-15T07:10:38;19.70;32.00
74336;DHT22;62755;-33.398;-70.572;2022-10-15T07:13:08;19.70;32.20
74336;DHT22;62755;-33.398;-70.572;2022-10-15T07:15:38;19.70;32.30
74336;DHT22;62755;-33.398;-70.572;2022-10-15T07:18:07;19.70;32.40
74336;DHT22;62755;-33.398;-70.572;2022-10-15T07:20:37;19.70;32.00
74336;DHT22;62755;-33.398;-70.572;2022-10-15T07:23:06;19.70;32.00
74336;DHT22;62755;-33.398;-70.572;2022-10-15T07:25:38;19.70;31.80
74336;DHT22;62755;-33.398;-70.572;2022-10-15T07:28:07;19.70;32.00
74336;DHT22;62755;-33.398;-70.572;2022-10-15T07:30:37;19.70;32.00
74336;DHT22;62755;-33.398;-70.572;2022-10-15T07:33:07;19.70;31.80
74336;DHT22;62755;-33.398;-70.572;2022-10-15T07:35:37;19.70;32.10
74336;DHT22;62755;-33.398;-70.572;2022-10-15T07:38:07;19.70;32.50
74336;DHT22;62755;-33.398;-70.572;2022-10-15T07:40:38;19.80;32.40
74336;DHT22;62755;-33.398;-70.572;2022-10-15T07:43:07;19.70;32.40
74336;DHT22;62755;-33.398;-70.572;2022-10-15T07:45:37;19.80;32.20
74336;DHT22;62755;-33.398;-70.572;2022-10-15T07:48:07;19.80;32.10
74336;DHT22;62755;-33.398;-70.572;2022-10-15T07:50:36;19.80;32.20
74336;DHT22;62755;-33.398;-70.572;2022-10-15T07:53:06;19.80;32.50
74336;DHT22;62755;-33.398;-70.572;2022-10-15T07:55:35;19.80;32.50
74336;DHT22;62755;-33.398;-70.572;2022-10-15T07:58:07;19.80;32.30
74336;DHT22;62755;-33.398;-70.572;2022-10-15T08:00:36;19.80;32.30
74336;DHT22;62755;-33.398;-70.572;2022-10-15T08:03:06;19.80;32.40
74336;DHT22;62755;-33.398;-70.572;2022-10-15T08:05:35;19.70;32.10
74336;DHT22;62755;-33.398;-70.572;2022-10-15T08:08:05;19.70;32.00
74336;DHT22;62755;-33.398;-70.572;2022-10-15T08:10:35;19.70;32.10
74336;DHT22;62755;-33.398;-70.572;2022-10-15T08:13:07;19.70;32.30
74336;DHT22;62755;-33.398;-70.572;2022-10-15T08:15:39;19.60;32.10
74336;DHT22;62755;-33.398;-70.572;2022-10-15T08:18:09;19.50;32.40
74336;DHT22;62755;-33.398;-70.572;2022-10-15T08:20:38;19.50;32.40
74336;DHT22;62755;-33.398;-70.572;2022-10-15T08:23:13;19.40;32.00
74336;DHT22;62755;-33.398;-70.572;2022-10-15T08:25:43;19.30;32.20
74336;DHT22;62755;-33.398;-70.572;2022-10-15T08:28:15;19.30;32.50
74336;DHT22;62755;-33.398;-70.572;2022-10-15T08:30:44;19.30;32.50
74336;DHT22;62755;-33.398;-70.572;2022-10-15T08:33:14;19.40;32.50
74336;DHT22;62755;-33.398;-70.572;2022-10-15T08:35:43;19.30;32.40
74336;DHT22;62755;-33.398;-70.572;2022-10-15T08:38:13;19.30;31.20
74336;DHT22;62755;-33.398;-70.572;2022-10-15T08:40:47;19.20;31.80
74336;DHT22;62755;-33.398;-70.572;2022-10-15T08:43:22;19.10;32.40
74336;DHT22;62755;-33.398;-70.572;2022-10-15T08:45:55;19.10;32.00
74336;DHT22;62755;-33.398;-70.572;2022-10-15T08:48:29;19.00;31.50
74336;DHT22;62755;-33.398;-70.572;2022-10-15T08:51:02;18.90;32.20
74336;DHT22;62755;-33.398;-70.572;2022-10-15T08:53:37;18.90;32.30
74336;DHT22;62755;-33.398;-70.572;2022-10-15T08:56:14;18.80;32.10
74336;DHT22;62755;-33.398;-70.572;2022-10-15T08:58:52;18.90;33.00
74336;DHT22;62755;-33.398;-70.572;2022-10-15T09:01:34;19.00;32.80
74336;DHT22;62755;-33.398;-70.572;2022-10-15T09:04:15;19.10;32.60
74336;DHT22;62755;-33.398;-70.572;2022-10-15T09:06:49;19.10;32.30
74336;DHT22;62755;-33.398;-70.572;2022-10-15T09:09:27;19.10;32.60
74336;DHT22;62755;-33.398;-70.572;2022-10-15T09:12:02;19.10;32.60
74336;DHT22;62755;-33.398;-70.572;2022-10-15T09:14:37;19.10;32.80
74336;DHT22;62755;-33.398;-70.572;2022-10-15T09:17:13;19.10;32.50
74336;DHT22;62755;-33.398;-70.572;2022-10-15T09:19:45;19.00;32.70
74336;DHT22;62755;-33.398;-70.572;2022-10-15T09:22:20;18.90;32.50
74336;DHT22;62755;-33.398;-70.572;2022-10-15T09:24:51;18.90;32.40
74336;DHT22;62755;-33.398;-70.572;2022-10-15T09:27:26;18.90;32.50
74336;DHT22;62755;-33.398;-70.572;2022-10-15T09:30:04;18.90;32.60
74336;DHT22;62755;-33.398;-70.572;2022-10-15T09:32:38;18.90;32.30
74336;DHT22;62755;-33.398;-70.572;2022-10-15T09:35:15;18.90;32.50
74336;DHT22;62755;-33.398;-70.572;2022-10-15T09:37:51;18.80;32.40
74336;DHT22;62755;-33.398;-70.572;2022-10-15T09:40:38;18.80;32.70
74336;DHT22;62755;-33.398;-70.572;2022-10-15T09:43:12;18.80;32.30
74336;DHT22;62755;-33.398;-70.572;2022-10-15T09:45:46;18.80;32.30
74336;DHT22;62755;-33.398;-70.572;2022-10-15T09:48:17;18.80;32.50
74336;DHT22;62755;-33.398;-70.572;2022-10-15T09:50:52;18.80;32.60
74336;DHT22;62755;-33.398;-70.572;2022-10-15T09:53:30;18.70;32.60
74336;DHT22;62755;-33.398;-70.572;2022-10-15T09:56:12;18.70;32.80
74336;DHT22;62755;-33.398;-70.572;2022-10-15T09:58:49;18.70;32.60
74336;DHT22;62755;-33.398;-70.572;2022-10-15T10:01:22;18.70;32.50
74336;DHT22;62755;-33.398;-70.572;2022-10-15T10:04:08;18.60;32.40
74336;DHT22;62755;-33.398;-70.572;2022-10-15T10:06:44;18.60;32.50
74336;DHT22;62755;-33.398;-70.572;2022-10-15T10:09:18;18.60;32.50
74336;DHT22;62755;-33.398;-70.572;2022-10-15T10:11:50;18.70;32.70
74336;DHT22;62755;-33.398;-70.572;2022-10-15T10:14:26;18.60;33.00
74336;DHT22;62755;-33.398;-70.572;2022-10-15T10:17:14;18.50;32.90
74336;DHT22;62755;-33.398;-70.572;2022-10-15T10:19:45;18.50;32.90
74336;DHT22;62755;-33.398;-70.572;2022-10-15T10:22:17;18.40;32.90
74336;DHT22;62755;-33.398;-70.572;2022-10-15T10:24:47;18.40;33.10
74336;DHT22;62755;-33.398;-70.572;2022-10-15T10:27:22;18.40;33.00
74336;DHT22;62755;-33.398;-70.572;2022-10-15T10:29:57;18.50;32.60
74336;DHT22;62755;-33.398;-70.572;2022-10-15T10:32:31;18.60;33.10
74336;DHT22;62755;-33.398;-70.572;2022-10-15T10:35:02;18.70;33.40
74336;DHT22;62755;-33.398;-70.572;2022-10-15T10:37:41;18.70;33.10
74336;DHT22;62755;-33.398;-70.572;2022-10-15T10:40:22;18.60;33.70
74336;DHT22;62755;-33.398;-70.572;2022-10-15T10:43:09;18.60;33.50
74336;DHT22;62755;-33.398;-70.572;2022-10-15T10:45:39;18.70;33.40
74336;DHT22;62755;-33.398;-70.572;2022-10-15T10:48:24;18.70;32.80
74336;DHT22;62755;-33.398;-70.572;2022-10-15T10:51:09;18.60;32.70
74336;DHT22;62755;-33.398;-70.572;2022-10-15T10:53:50;18.60;32.90
74336;DHT22;62755;-33.398;-70.572;2022-10-15T10:56:22;18.60;33.20
74336;DHT22;62755;-33.398;-70.572;2022-10-15T10:58:56;18.70;33.40
74336;DHT22;62755;-33.398;-70.572;2022-10-15T11:01:27;18.70;33.00
74336;DHT22;62755;-33.398;-70.572;2022-10-15T11:03:59;18.80;33.50
74336;DHT22;62755;-33.398;-70.572;2022-10-15T11:06:49;18.80;33.20
74336;DHT22;62755;-33.398;-70.572;2022-10-15T11:09:36;18.90;33.70
74336;DHT22;62755;-33.398;-70.572;2022-10-15T11:12:30;19.00;33.70
74336;DHT22;62755;-33.398;-70.572;2022-10-15T11:15:22;19.00;34.10
74336;DHT22;62755;-33.398;-70.572;2022-10-15T11:18:04;19.00;34.00
74336;DHT22;62755;-33.398;-70.572;2022-10-15T11:20:50;19.10;33.70
74336;DHT22;62755;-33.398;-70.572;2022-10-15T11:23:34;19.20;33.00
74336;DHT22;62755;-33.398;-70.572;2022-10-15T11:26:25;19.20;33.20
74336;DHT22;62755;-33.398;-70.572;2022-10-15T11:29:08;19.20;33.50
74336;DHT22;62755;-33.398;-70.572;2022-10-15T11:31:46;19.20;33.80
74336;DHT22;62755;-33.398;-70.572;2022-10-15T11:34:30;19.20;33.40
74336;DHT22;62755;-33.398;-70.572;2022-10-15T11:37:14;19.20;33.00
74336;DHT22;62755;-33.398;-70.572;2022-10-15T11:39:58;19.20;32.90
74336;DHT22;62755;-33.398;-70.572;2022-10-15T11:42:36;19.20;33.10
74336;DHT22;62755;-33.398;-70.572;2022-10-15T11:45:32;19.20;32.80
74336;DHT22;62755;-33.398;-70.572;2022-10-15T11:48:08;19.30;32.80
74336;DHT22;62755;-33.398;-70.572;2022-10-15T11:50:42;19.30;32.60
74336;DHT22;62755;-33.398;-70.572;2022-10-15T11:53:40;19.40;32.80
74336;DHT22;62755;-33.398;-70.572;2022-10-15T11:56:17;19.50;32.70
74336;DHT22;62755;-33.398;-70.572;2022-10-15T11:58:51;19.50;32.60
74336;DHT22;62755;-33.398;-70.572;2022-10-15T12:01:27;19.60;32.50
74336;DHT22;62755;-33.398;-70.572;2022-10-15T12:04:01;19.70;32.20
74336;DHT22;62755;-33.398;-70.572;2022-10-15T12:06:35;19.80;32.10
74336;DHT22;62755;-33.398;-70.572;2022-10-15T12:09:12;19.90;31.90
74336;DHT22;62755;-33.398;-70.572;2022-10-15T12:11:47;20.00;31.70
74336;DHT22;62755;-33.398;-70.572;2022-10-15T12:14:23;20.00;31.70
74336;DHT22;62755;-33.398;-70.572;2022-10-15T12:17:10;20.10;31.70
74336;DHT22;62755;-33.398;-70.572;2022-10-15T12:19:48;20.10;31.60
74336;DHT22;62755;-33.398;-70.572;2022-10-15T12:22:34;20.10;31.60
74336;DHT22;62755;-33.398;-70.572;2022-10-15T12:25:10;20.10;31.50
74336;DHT22;62755;-33.398;-70.572;2022-10-15T12:28:01;20.20;31.50
74336;DHT22;62755;-33.398;-70.572;2022-10-15T12:30:32;20.20;31.60
74336;DHT22;62755;-33.398;-70.572;2022-10-15T12:33:19;20.30;31.70
74336;DHT22;62755;-33.398;-70.572;2022-10-15T12:35:54;20.30;31.70
74336;DHT22;62755;-33.398;-70.572;2022-10-15T12:38:28;20.30;31.70
74336;DHT22;62755;-33.398;-70.572;2022-10-15T12:41:03;20.40;31.50
74336;DHT22;62755;-33.398;-70.572;2022-10-15T12:43:36;20.50;31.50
74336;DHT22;62755;-33.398;-70.572;2022-10-15T12:46:07;20.50;31.50
74336;DHT22;62755;-33.398;-70.572;2022-10-15T12:48:40;20.50;31.60
74336;DHT22;62755;-33.398;-70.572;2022-10-15T12:51:39;20.60;31.50
74336;DHT22;62755;-33.398;-70.572;2022-10-15T12:54:34;20.70;31.40
74336;DHT22;62755;-33.398;-70.572;2022-10-15T13:00:33;20.70;31.70
74336;DHT22;62755;-33.398;-70.572;2022-10-15T13:06:21;20.70;32.10
74336;DHT22;62755;-33.398;-70.572;2022-10-15T13:08:53;20.80;32.10
74336;DHT22;62755;-33.398;-70.572;2022-10-15T13:11:27;20.90;32.10
74336;DHT22;62755;-33.398;-70.572;2022-10-15T13:14:02;20.90;32.20
74336;DHT22;62755;-33.398;-70.572;2022-10-15T13:16:41;21.00;32.00
74336;DHT22;62755;-33.398;-70.572;2022-10-15T13:19:18;21.10;31.70
74336;DHT22;62755;-33.398;-70.572;2022-10-15T13:21:49;21.10;31.80
74336;DHT22;62755;-33.398;-70.572;2022-10-15T13:24:21;21.10;31.70
74336;DHT22;62755;-33.398;-70.572;2022-10-15T13:26:52;21.20;31.70
74336;DHT22;62755;-33.398;-70.572;2022-10-15T13:29:25;21.30;31.50
74336;DHT22;62755;-33.398;-70.572;2022-10-15T13:31:56;21.40;31.40
74336;DHT22;62755;-33.398;-70.572;2022-10-15T13:34:29;21.40;31.40
74336;DHT22;62755;-33.398;-70.572;2022-10-15T13:37:00;21.40;31.40
74336;DHT22;62755;-33.398;-70.572;2022-10-15T13:39:32;21.50;31.20
74336;DHT22;62755;-33.398;-70.572;2022-10-15T13:42:12;21.50;31.10
74336;DHT22;62755;-33.398;-70.572;2022-10-15T13:44:54;21.50;31.00
74336;DHT22;62755;-33.398;-70.572;2022-10-15T13:47:30;21.50;31.30
74336;DHT22;62755;-33.398;-70.572;2022-10-15T13:50:25;21.70;31.20
74336;DHT22;62755;-33.398;-70.572;2022-10-15T13:52:57;21.70;31.70
74336;DHT22;62755;-33.398;-70.572;2022-10-15T13:55:29;21.70;31.60
74336;DHT22;62755;-33.398;-70.572;2022-10-15T13:58:01;21.80;31.70
74336;DHT22;62755;-33.398;-70.572;2022-10-15T14:00:34;21.90;31.70
74336;DHT22;62755;-33.398;-70.572;2022-10-15T14:03:12;21.90;31.50
74336;DHT22;62755;-33.398;-70.572;2022-10-15T14:05:42;21.90;31.50
74336;DHT22;62755;-33.398;-70.572;2022-10-15T14:08:17;21.90;31.40
74336;DHT22;62755;-33.398;-70.572;2022-10-15T14:10:48;21.90;31.20
74336;DHT22;62755;-33.398;-70.572;2022-10-15T14:13:18;21.90;31.20
74336;DHT22;62755;-33.398;-70.572;2022-10-15T14:15:56;22.00;31.20
74336;DHT22;62755;-33.398;-70.572;2022-10-15T14:18:31;22.00;31.30
74336;DHT22;62755;-33.398;-70.572;2022-10-15T14:21:02;22.10;31.40
74336;DHT22;62755;-33.398;-70.572;2022-10-15T14:23:32;22.10;31.10
74336;DHT22;62755;-33.398;-70.572;2022-10-15T14:26:02;22.20;30.80
74336;DHT22;62755;-33.398;-70.572;2022-10-15T14:28:33;22.20;30.80
74336;DHT22;62755;-33.398;-70.572;2022-10-15T14:31:06;22.30;30.50
74336;DHT22;62755;-33.398;-70.572;2022-10-15T14:33:43;22.30;30.40
74336;DHT22;62755;-33.398;-70.572;2022-10-15T14:36:25;22.30;30.20
74336;DHT22;62755;-33.398;-70.572;2022-10-15T14:38:56;22.40;30.20
74336;DHT22;62755;-33.398;-70.572;2022-10-15T14:41:55;22.50;30.40
74336;DHT22;62755;-33.398;-70.572;2022-10-15T14:44:25;22.50;30.00
74336;DHT22;62755;-33.398;-70.572;2022-10-15T14:47:17;22.60;30.10
74336;DHT22;62755;-33.398;-70.572;2022-10-15T14:49:48;22.60;29.80
74336;DHT22;62755;-33.398;-70.572;2022-10-15T14:52:18;22.70;30.00
74336;DHT22;62755;-33.398;-70.572;2022-10-15T14:55:00;22.80;29.60
74336;DHT22;62755;-33.398;-70.572;2022-10-15T14:57:34;22.90;29.20
74336;DHT22;62755;-33.398;-70.572;2022-10-15T15:00:09;22.90;28.80
74336;DHT22;62755;-33.398;-70.572;2022-10-15T15:02:44;23.00;28.90
74336;DHT22;62755;-33.398;-70.572;2022-10-15T15:05:20;23.00;29.20
74336;DHT22;62755;-33.398;-70.572;2022-10-15T15:07:50;23.10;28.70
74336;DHT22;62755;-33.398;-70.572;2022-10-15T15:10:21;23.10;28.90
74336;DHT22;62755;-33.398;-70.572;2022-10-15T15:12:52;23.20;28.90
74336;DHT22;62755;-33.398;-70.572;2022-10-15T15:15:24;23.30;29.00
74336;DHT22;62755;-33.398;-70.572;2022-10-15T15:17:56;23.40;29.00
74336;DHT22;62755;-33.398;-70.572;2022-10-15T15:20:25;23.40;28.90
74336;DHT22;62755;-33.398;-70.572;2022-10-15T15:22:55;23.50;28.70
74336;DHT22;62755;-33.398;-70.572;2022-10-15T15:25:29;23.60;28.50
74336;DHT22;62755;-33.398;-70.572;2022-10-15T15:27:59;23.80;28.40
74336;DHT22;62755;-33.398;-70.572;2022-10-15T15:30:30;23.90;29.00
74336;DHT22;62755;-33.398;-70.572;2022-10-15T15:33:02;24.10;28.70
74336;DHT22;62755;-33.398;-70.572;2022-10-15T15:35:38;24.20;28.40
74336;DHT22;62755;-33.398;-70.572;2022-10-15T15:38:11;24.40;28.20
74336;DHT22;62755;-33.398;-70.572;2022-10-15T15:40:41;24.70;28.20
74336;DHT22;62755;-33.398;-70.572;2022-10-15T15:43:12;25.00;27.80
74336;DHT22;62755;-33.398;-70.572;2022-10-15T15:45:42;25.20;27.70